sensor_id;sensor_type;location;lat;lon;timestamp;pressure;altitude;pressure_sealevel;temperature;humidity
11268;BME280;49397;47.474;9.416;2023-01-25T00:02:00;96751.72;;;1.51;87.95
11268;BME280;49397;47.474;9.416;2023-01-25T00:04:26;96739.84;;;1.47;87.42
11268;BME280;49397;47.474;9.416;2023-01-25T00:06:52;96732.84;;;1.46;87.38
11268;BME280;49397;47.474;9.416;2023-01-25T00:09:19;96729.44;;;1.39;86.25
11268;BME280;49397;47.474;9.416;2023-01-25T00:11:45;96732.91;;;1.39;86.29
11268;BME280;49397;47.474;9.416;2023-01-25T00:14:11;96732.09;;;1.39;87.01
11268;BME280;49397;47.474;9.416;2023-01-25T00:16:38;96725.38;;;1.30;88.65
11268;BME280;49397;47.474;9.416;2023-01-25T00:19:05;96751.72;;;1.51;88.07
11268;BME280;49397;47.474;9.416;2023-01-25T00:21:31;96741.63;;;1.53;86.96
11268;BME280;49397;47.474;9.416;2023-01-25T00:23:56;96731.81;;;1.47;86.78
11268;BME280;49397;47.474;9.416;2023-01-25T00:26:22;96744.56;;;1.45;88.05
11268;BME280;49397;47.474;9.416;2023-01-25T00:28:54;96728.16;;;1.41;87.01
11268;BME280;49397;47.474;9.416;2023-01-25T00:31:53;96735.38;;;1.59;86.59
11268;BME280;49397;47.474;9.416;2023-01-25T00:34:37;96731.94;;;1.52;85.57
11268;BME280;49397;47.474;9.416;2023-01-25T00:37:13;96718.28;;;1.42;85.39
11268;BME280;49397;47.474;9.416;2023-01-25T00:39:39;96742.28;;;1.48;87.10
11268;BME280;49397;47.474;9.416;2023-01-25T00:42:07;96748.44;;;1.49;85.30
11268;BME280;49397;47.474;9.416;2023-01-25T00:44:34;96730.44;;;1.38;85.37
11268;BME280;49397;47.474;9.416;2023-01-25T00:46:59;96733.16;;;1.56;85.97
11268;BME280;49397;47.474;9.416;2023-01-25T00:49:26;96732.16;;;1.50;86.03
11268;BME280;49397;47.474;9.416;2023-01-25T00:51:53;96722.34;;;1.44;85.71
11268;BME280;49397;47.474;9.416;2023-01-25T00:54:19;96736.78;;;1.43;87.49
11268;BME280;49397;47.474;9.416;2023-01-25T00:56:45;96743.53;;;1.46;85.68
11268;BME280;49397;47.474;9.416;2023-01-25T00:59:14;96742.28;;;1.48;85.41
11268;BME280;49397;47.474;9.416;2023-01-25T01:01:40;96738.47;;;1.38;86.02
11268;BME280;49397;47.474;9.416;2023-01-25T01:04:06;96737.72;;;1.49;85.70
11268;BME280;49397;47.474;9.416;2023-01-25T01:06:34;96723.97;;;1.45;85.72
11268;BME280;49397;47.474;9.416;2023-01-25T01:09:00;96746.28;;;1.58;85.51
11268;BME280;49397;47.474;9.416;2023-01-25T01:11:26;96736.25;;;1.53;85.99
11268;BME280;49397;47.474;9.416;2023-01-25T01:13:51;96723.91;;;1.52;85.24
11268;BME280;49397;47.474;9.416;2023-01-25T01:16:17;96728.09;;;1.48;84.93
11268;BME280;49397;47.474;9.416;2023-01-25T01:18:44;96722.13;;;1.46;85.04
11268;BME280;49397;47.474;9.416;2023-01-25T01:21:10;96718.22;;;1.48;85.42
11268;BME280;49397;47.474;9.416;2023-01-25T01:23:37;96721.97;;;1.41;86.11
11268;BME280;49397;47.474;9.416;2023-01-25T01:26:05;96720.81;;;1.37;86.25
11268;BME280;49397;47.474;9.416;2023-01-25T01:28:31;96724.50;;;1.36;85.53
11268;BME280;49397;47.474;9.416;2023-01-25T01:31:02;96731.81;;;1.47;85.35
11268;BME280;49397;47.474;9.416;2023-01-25T01:33:28;96733.44;;;1.48;86.29
11268;BME280;49397;47.474;9.416;2023-01-25T01:35:54;96719.59;;;1.33;86.65
11268;BME280;49397;47.474;9.416;2023-01-25T01:38:19;96725.78;;;1.33;86.30
11268;BME280;49397;47.474;9.416;2023-01-25T01:40:45;96726.88;;;1.44;86.13
11268;BME280;49397;47.474;9.416;2023-01-25T01:43:20;96726.97;;;1.37;87.08
11268;BME280;49397;47.474;9.416;2023-01-25T01:45:53;96722.97;;;1.46;86.70
11268;BME280;49397;47.474;9.416;2023-01-25T01:51:02;96714.34;;;1.44;86.02
11268;BME280;49397;47.474;9.416;2023-01-25T01:53:31;96724.97;;;1.51;85.83
11268;BME280;49397;47.474;9.416;2023-01-25T01:55:59;96717.41;;;1.48;85.50
11268;BME280;49397;47.474;9.416;2023-01-25T01:58:28;96720.66;;;1.50;85.25
11268;BME280;49397;47.474;9.416;2023-01-25T02:00:54;96711.81;;;1.49;85.85
11268;BME280;49397;47.474;9.416;2023-01-25T02:03:20;96702.69;;;1.39;85.77
11268;BME280;49397;47.474;9.416;2023-01-25T02:05:53;96705.19;;;1.52;85.94
11268;BME280;49397;47.474;9.416;2023-01-25T02:08:20;96710.84;;;1.44;86.79
11268;BME280;49397;47.474;9.416;2023-01-25T02:10:47;96714.13;;;1.46;86.20
11268;BME280;49397;47.474;9.416;2023-01-25T02:13:13;96700.03;;;1.39;85.72
11268;BME280;49397;47.474;9.416;2023-01-25T02:15:45;96712.72;;;1.43;85.75
11268;BME280;49397;47.474;9.416;2023-01-25T02:18:12;96713.09;;;1.47;85.15
11268;BME280;49397;47.474;9.416;2023-01-25T02:20:38;96715.22;;;1.56;84.25
11268;BME280;49397;47.474;9.416;2023-01-25T02:25:57;96707.75;;;1.47;85.20
11268;BME280;49397;47.474;9.416;2023-01-25T02:28:25;96706.84;;;1.53;85.58
11268;BME280;49397;47.474;9.416;2023-01-25T02:30:52;96702.53;;;1.52;86.66
11268;BME280;49397;47.474;9.416;2023-01-25T02:33:18;96710.09;;;1.55;85.57
11268;BME280;49397;47.474;9.416;2023-01-25T02:35:46;96714.88;;;1.53;86.80
11268;BME280;49397;47.474;9.416;2023-01-25T02:38:14;96711.81;;;1.49;86.74
11268;BME280;49397;47.474;9.416;2023-01-25T02:43:15;96718.50;;;1.58;86.54
11268;BME280;49397;47.474;9.416;2023-01-25T02:45:43;96710.69;;;1.57;85.57
11268;BME280;49397;47.474;9.416;2023-01-25T02:48:10;96715.97;;;1.64;86.73
11268;BME280;49397;47.474;9.416;2023-01-25T02:50:36;96700.28;;;1.49;86.16
11268;BME280;49397;47.474;9.416;2023-01-25T02:53:01;96710.69;;;1.57;86.23
11268;BME280;49397;47.474;9.416;2023-01-25T02:55:26;96701.78;;;1.63;85.91
11268;BME280;49397;47.474;9.416;2023-01-25T02:57:52;96697.31;;;1.57;86.64
11268;BME280;49397;47.474;9.416;2023-01-25T03:00:18;96692.03;;;1.50;87.35
11268;BME280;49397;47.474;9.416;2023-01-25T03:02:43;96688.59;;;1.50;86.34
11268;BME280;49397;47.474;9.416;2023-01-25T03:05:09;96684.78;;;1.39;85.94
11268;BME280;49397;47.474;9.416;2023-01-25T03:07:35;96680.41;;;1.45;86.51
11268;BME280;49397;47.474;9.416;2023-01-25T03:10:00;96675.06;;;1.45;86.85
11268;BME280;49397;47.474;9.416;2023-01-25T03:12:26;96664.38;;;1.45;87.03
11268;BME280;49397;47.474;9.416;2023-01-25T03:14:51;96673.19;;;1.45;86.61
11268;BME280;49397;47.474;9.416;2023-01-25T03:17:17;96679.81;;;1.43;86.84
11268;BME280;49397;47.474;9.416;2023-01-25T03:19:42;96672.38;;;1.45;86.88
11268;BME280;49397;47.474;9.416;2023-01-25T03:22:08;96669.25;;;1.48;87.12
11268;BME280;49397;47.474;9.416;2023-01-25T03:24:35;96665.75;;;1.47;86.85
11268;BME280;49397;47.474;9.416;2023-01-25T03:27:00;96666.13;;;1.33;87.42
11268;BME280;49397;47.474;9.416;2023-01-25T03:29:36;96669.56;;;1.40;88.36
11268;BME280;49397;47.474;9.416;2023-01-25T03:32:01;96656.47;;;1.14;88.92
11268;BME280;49397;47.474;9.416;2023-01-25T03:34:27;96661.97;;;1.19;88.57
11268;BME280;49397;47.474;9.416;2023-01-25T03:36:53;96669.09;;;1.25;90.05
11268;BME280;49397;47.474;9.416;2023-01-25T03:39:19;96665.56;;;1.31;88.39
11268;BME280;49397;47.474;9.416;2023-01-25T03:41:45;96660.88;;;1.26;88.40
11268;BME280;49397;47.474;9.416;2023-01-25T03:44:10;96668.00;;;1.32;88.39
11268;BME280;49397;47.474;9.416;2023-01-25T03:46:37;96649.59;;;1.24;87.50
11268;BME280;49397;47.474;9.416;2023-01-25T03:49:02;96664.97;;;1.29;87.86
11268;BME280;49397;47.474;9.416;2023-01-25T03:51:28;96656.34;;;1.27;87.71
11268;BME280;49397;47.474;9.416;2023-01-25T03:53:53;96646.63;;;1.32;88.66
11268;BME280;49397;47.474;9.416;2023-01-25T03:56:19;96655.44;;;1.33;88.75
11268;BME280;49397;47.474;9.416;2023-01-25T03:58:45;96650.41;;;1.43;87.82
11268;BME280;49397;47.474;9.416;2023-01-25T04:01:11;96636.72;;;1.33;87.54
11268;BME280;49397;47.474;9.416;2023-01-25T04:03:37;96653.06;;;1.43;87.87
11268;BME280;49397;47.474;9.416;2023-01-25T04:06:03;96645.03;;;1.43;87.64
11268;BME280;49397;47.474;9.416;2023-01-25T04:08:29;96638.38;;;1.34;88.25
11268;BME280;49397;47.474;9.416;2023-01-25T04:10:59;96656.56;;;1.43;88.28
11268;BME280;49397;47.474;9.416;2023-01-25T04:13:26;96643.28;;;1.37;88.39
11268;BME280;49397;47.474;9.416;2023-01-25T04:15:51;96646.53;;;1.39;88.65
11268;BME280;49397;47.474;9.416;2023-01-25T04:18:17;96648.03;;;1.35;87.91
11268;BME280;49397;47.474;9.416;2023-01-25T04:20:43;96651.66;;;1.40;87.13
11268;BME280;49397;47.474;9.416;2023-01-25T04:23:11;96648.63;;;1.37;87.55
11268;BME280;49397;47.474;9.416;2023-01-25T04:25:37;96646.66;;;1.44;87.05
11268;BME280;49397;47.474;9.416;2023-01-25T04:28:03;96649.00;;;1.40;86.85
11268;BME280;49397;47.474;9.416;2023-01-25T04:30:29;96650.91;;;1.33;87.43
11268;BME280;49397;47.474;9.416;2023-01-25T04:32:55;96651.22;;;1.43;86.94
11268;BME280;49397;47.474;9.416;2023-01-25T04:35:20;96641.78;;;1.41;87.30
11268;BME280;49397;47.474;9.416;2023-01-25T04:37:56;96641.84;;;1.34;87.93
11268;BME280;49397;47.474;9.416;2023-01-25T04:40:22;96627.47;;;1.35;87.33
11268;BME280;49397;47.474;9.416;2023-01-25T04:42:48;96628.63;;;1.39;86.84
11268;BME280;49397;47.474;9.416;2023-01-25T04:45:13;96619.75;;;1.27;86.08
11268;BME280;49397;47.474;9.416;2023-01-25T04:47:39;96637.69;;;1.20;86.22
11268;BME280;49397;47.474;9.416;2023-01-25T04:50:04;96632.50;;;1.25;86.83
11268;BME280;49397;47.474;9.416;2023-01-25T04:52:30;96634.88;;;1.33;86.78
11268;BME280;49397;47.474;9.416;2023-01-25T04:54:56;96629.53;;;1.33;87.06
11268;BME280;49397;47.474;9.416;2023-01-25T04:57:22;96624.19;;;1.33;86.98
11268;BME280;49397;47.474;9.416;2023-01-25T04:59:47;96634.50;;;1.30;86.38
11268;BME280;49397;47.474;9.416;2023-01-25T05:02:13;96633.59;;;1.36;86.02
11268;BME280;49397;47.474;9.416;2023-01-25T05:04:38;96627.53;;;1.29;86.16
11268;BME280;49397;47.474;9.416;2023-01-25T05:07:04;96622.25;;;1.22;86.38
11268;BME280;49397;47.474;9.416;2023-01-25T05:09:29;96625.31;;;1.26;86.76
11268;BME280;49397;47.474;9.416;2023-01-25T05:11:55;96614.00;;;1.24;87.05
11268;BME280;49397;47.474;9.416;2023-01-25T05:14:20;96618.31;;;1.25;87.38
11268;BME280;49397;47.474;9.416;2023-01-25T05:16:46;96623.53;;;1.20;86.73
11268;BME280;49397;47.474;9.416;2023-01-25T05:19:12;96619.72;;;1.09;87.16
11268;BME280;49397;47.474;9.416;2023-01-25T05:21:37;96621.59;;;1.09;87.70
11268;BME280;49397;47.474;9.416;2023-01-25T05:24:21;96615.28;;;1.21;86.94
11268;BME280;49397;47.474;9.416;2023-01-25T05:26:47;96617.38;;;1.19;86.25
11268;BME280;49397;47.474;9.416;2023-01-25T05:29:31;96613.28;;;1.17;86.58
11268;BME280;49397;47.474;9.416;2023-01-25T05:32:01;96606.75;;;1.13;86.07
11268;BME280;49397;47.474;9.416;2023-01-25T05:34:26;96614.84;;;1.06;86.25
11268;BME280;49397;47.474;9.416;2023-01-25T05:36:52;96603.34;;;1.06;86.28
11268;BME280;49397;47.474;9.416;2023-01-25T05:39:17;96604.22;;;1.18;86.38
11268;BME280;49397;47.474;9.416;2023-01-25T05:41:43;96611.25;;;1.12;87.05
11268;BME280;49397;47.474;9.416;2023-01-25T05:44:08;96600.78;;;1.11;86.91
11268;BME280;49397;47.474;9.416;2023-01-25T05:46:34;96602.00;;;1.15;86.77
11268;BME280;49397;47.474;9.416;2023-01-25T05:48:59;96607.13;;;1.16;86.47
11268;BME280;49397;47.474;9.416;2023-01-25T05:51:25;96605.84;;;1.19;85.46
11268;BME280;49397;47.474;9.416;2023-01-25T05:53:53;96608.06;;;1.22;86.29
11268;BME280;49397;47.474;9.416;2023-01-25T05:56:19;96597.75;;;1.25;86.24
11268;BME280;49397;47.474;9.416;2023-01-25T05:58:45;96607.06;;;1.23;85.83
11268;BME280;49397;47.474;9.416;2023-01-25T06:01:10;96598.81;;;1.24;86.55
11268;BME280;49397;47.474;9.416;2023-01-25T06:03:36;96591.00;;;1.23;86.41
11268;BME280;49397;47.474;9.416;2023-01-25T06:06:01;96588.91;;;1.25;85.92
11268;BME280;49397;47.474;9.416;2023-01-25T06:08:28;96587.59;;;1.16;86.02
11268;BME280;49397;47.474;9.416;2023-01-25T06:10:53;96602.16;;;1.20;86.10
11268;BME280;49397;47.474;9.416;2023-01-25T06:13:19;96592.47;;;1.19;85.89
11268;BME280;49397;47.474;9.416;2023-01-25T06:15:53;96590.03;;;1.17;85.71
11268;BME280;49397;47.474;9.416;2023-01-25T06:18:19;96602.69;;;1.10;85.15
11268;BME280;49397;47.474;9.416;2023-01-25T06:20:45;96598.56;;;1.08;85.47
11268;BME280;49397;47.474;9.416;2023-01-25T06:23:10;96584.19;;;1.09;86.02
11268;BME280;49397;47.474;9.416;2023-01-25T06:25:36;96600.72;;;1.17;85.54
11268;BME280;49397;47.474;9.416;2023-01-25T06:28:01;96602.06;;;1.26;85.38
11268;BME280;49397;47.474;9.416;2023-01-25T06:30:27;96604.16;;;1.24;85.52
11268;BME280;49397;47.474;9.416;2023-01-25T06:32:52;96584.75;;;1.11;85.80
11268;BME280;49397;47.474;9.416;2023-01-25T06:35:18;96599.09;;;1.16;85.79
11268;BME280;49397;47.474;9.416;2023-01-25T06:37:43;96606.28;;;1.16;85.27
11268;BME280;49397;47.474;9.416;2023-01-25T06:40:09;96590.78;;;1.06;85.90
11268;BME280;49397;47.474;9.416;2023-01-25T06:42:35;96601.31;;;1.19;86.51
11268;BME280;49397;47.474;9.416;2023-01-25T06:45:01;96597.59;;;1.20;86.39
11268;BME280;49397;47.474;9.416;2023-01-25T06:47:26;96596.50;;;1.28;86.00
11268;BME280;49397;47.474;9.416;2023-01-25T06:49:51;96597.91;;;1.30;85.83
11268;BME280;49397;47.474;9.416;2023-01-25T06:52:17;96592.03;;;1.22;85.38
11268;BME280;49397;47.474;9.416;2023-01-25T06:54:43;96588.56;;;1.21;85.42
11268;BME280;49397;47.474;9.416;2023-01-25T06:57:08;96601.63;;;1.29;85.64
11268;BME280;49397;47.474;9.416;2023-01-25T06:59:34;96611.56;;;1.22;85.28
11268;BME280;49397;47.474;9.416;2023-01-25T07:02:00;96599.56;;;1.13;85.67
11268;BME280;49397;47.474;9.416;2023-01-25T07:04:25;96600.94;;;1.16;85.28
11268;BME280;49397;47.474;9.416;2023-01-25T07:06:51;96588.78;;;1.02;85.29
11268;BME280;49397;47.474;9.416;2023-01-25T07:09:16;96594.06;;;1.08;85.86
11268;BME280;49397;47.474;9.416;2023-01-25T07:11:48;96590.06;;;0.99;85.79
11268;BME280;49397;47.474;9.416;2023-01-25T07:14:13;96578.09;;;1.02;86.31
11268;BME280;49397;47.474;9.416;2023-01-25T07:16:39;96592.56;;;1.12;86.07
11268;BME280;49397;47.474;9.416;2023-01-25T07:19:06;96589.31;;;1.10;85.10
11268;BME280;49397;47.474;9.416;2023-01-25T07:21:32;96588.13;;;1.06;84.79
11268;BME280;49397;47.474;9.416;2023-01-25T07:24:03;96590.34;;;1.09;84.52
11268;BME280;49397;47.474;9.416;2023-01-25T07:26:29;96584.41;;;1.07;83.61
11268;BME280;49397;47.474;9.416;2023-01-25T07:28:56;96579.72;;;1.03;83.95
11268;BME280;49397;47.474;9.416;2023-01-25T07:31:22;96566.88;;;0.93;83.82
11268;BME280;49397;47.474;9.416;2023-01-25T07:33:53;96585.06;;;1.03;84.65
11268;BME280;49397;47.474;9.416;2023-01-25T07:36:19;96577.88;;;1.03;83.66
11268;BME280;49397;47.474;9.416;2023-01-25T07:38:45;96572.75;;;1.02;84.50
11268;BME280;49397;47.474;9.416;2023-01-25T07:41:11;96578.63;;;1.10;83.56
11268;BME280;49397;47.474;9.416;2023-01-25T07:43:37;96578.25;;;1.07;84.27
11268;BME280;49397;47.474;9.416;2023-01-25T07:46:06;96585.81;;;1.10;83.76
11268;BME280;49397;47.474;9.416;2023-01-25T07:48:32;96572.16;;;1.00;84.08
11268;BME280;49397;47.474;9.416;2023-01-25T07:51:00;96576.97;;;1.09;83.77
11268;BME280;49397;47.474;9.416;2023-01-25T07:53:44;96588.56;;;1.03;83.73
11268;BME280;49397;47.474;9.416;2023-01-25T07:56:11;96579.50;;;1.04;84.70
11268;BME280;49397;47.474;9.416;2023-01-25T07:58:37;96578.41;;;1.12;85.03
11268;BME280;49397;47.474;9.416;2023-01-25T08:01:09;96578.41;;;1.12;84.85
11268;BME280;49397;47.474;9.416;2023-01-25T08:03:35;96575.88;;;1.17;84.69
11268;BME280;49397;47.474;9.416;2023-01-25T08:06:01;96582.53;;;1.26;83.97
11268;BME280;49397;47.474;9.416;2023-01-25T08:08:33;96570.72;;;1.33;83.32
11268;BME280;49397;47.474;9.416;2023-01-25T08:11:05;96578.75;;;1.33;81.43
11268;BME280;49397;47.474;9.416;2023-01-25T08:13:31;96580.72;;;1.38;80.88
11268;BME280;49397;47.474;9.416;2023-01-25T08:15:56;96578.66;;;1.40;80.77
11268;BME280;49397;47.474;9.416;2023-01-25T08:18:22;96581.03;;;1.30;80.51
11268;BME280;49397;47.474;9.416;2023-01-25T08:20:48;96573.63;;;1.32;80.40
11268;BME280;49397;47.474;9.416;2023-01-25T08:23:13;96575.97;;;1.40;80.23
11268;BME280;49397;47.474;9.416;2023-01-25T08:25:38;96569.59;;;1.41;79.80
11268;BME280;49397;47.474;9.416;2023-01-25T08:28:04;96568.19;;;1.38;80.14
11268;BME280;49397;47.474;9.416;2023-01-25T08:30:30;96573.75;;;1.37;80.08
11268;BME280;49397;47.474;9.416;2023-01-25T08:32:55;96563.22;;;1.42;80.37
11268;BME280;49397;47.474;9.416;2023-01-25T08:35:21;96554.38;;;1.41;79.82
11268;BME280;49397;47.474;9.416;2023-01-25T08:37:46;96556.22;;;1.41;80.09
11268;BME280;49397;47.474;9.416;2023-01-25T08:40:12;96553.31;;;1.42;80.27
11268;BME280;49397;47.474;9.416;2023-01-25T08:42:40;96557.66;;;1.55;79.94
11268;BME280;49397;47.474;9.416;2023-01-25T08:45:08;96546.88;;;1.62;79.45
11268;BME280;49397;47.474;9.416;2023-01-25T08:47:34;96547.84;;;1.67;80.02
11268;BME280;49397;47.474;9.416;2023-01-25T08:49:59;96545.84;;;1.63;79.22
11268;BME280;49397;47.474;9.416;2023-01-25T08:52:25;96546.66;;;1.63;79.54
11268;BME280;49397;47.474;9.416;2023-01-25T08:54:51;96529.06;;;1.55;79.78
11268;BME280;49397;47.474;9.416;2023-01-25T08:57:16;96545.75;;;1.69;79.73
11268;BME280;49397;47.474;9.416;2023-01-25T08:59:42;96539.22;;;1.65;79.95
11268;BME280;49397;47.474;9.416;2023-01-25T09:02:11;96533.28;;;1.63;80.51
11268;BME280;49397;47.474;9.416;2023-01-25T09:04:37;96537.50;;;1.71;80.97
11268;BME280;49397;47.474;9.416;2023-01-25T09:07:03;96537.50;;;1.82;80.93
11268;BME280;49397;47.474;9.416;2023-01-25T09:09:28;96526.81;;;1.71;81.34
11268;BME280;49397;47.474;9.416;2023-01-25T09:11:55;96523.41;;;1.64;81.12
11268;BME280;49397;47.474;9.416;2023-01-25T09:14:20;96509.91;;;1.58;81.27
11268;BME280;49397;47.474;9.416;2023-01-25T09:16:46;96522.00;;;1.61;81.70
11268;BME280;49397;47.474;9.416;2023-01-25T09:19:12;96512.38;;;1.72;82.04
11268;BME280;49397;47.474;9.416;2023-01-25T09:21:38;96522.28;;;1.83;81.60
11268;BME280;49397;47.474;9.416;2023-01-25T09:24:04;96493.75;;;1.65;82.29
11268;BME280;49397;47.474;9.416;2023-01-25T09:26:31;96516.72;;;1.84;81.55
11268;BME280;49397;47.474;9.416;2023-01-25T09:28:56;96504.25;;;1.78;82.19
11268;BME280;49397;47.474;9.416;2023-01-25T09:31:22;96495.31;;;1.84;82.60
11268;BME280;49397;47.474;9.416;2023-01-25T09:33:49;96508.56;;;1.91;82.01
11268;BME280;49397;47.474;9.416;2023-01-25T09:36:15;96500.78;;;1.89;82.35
11268;BME280;49397;47.474;9.416;2023-01-25T09:38:41;96506.78;;;1.73;82.07
11268;BME280;49397;47.474;9.416;2023-01-25T09:41:17;96513.84;;;1.68;82.53
11268;BME280;49397;47.474;9.416;2023-01-25T09:43:55;96515.16;;;1.65;82.79
11268;BME280;49397;47.474;9.416;2023-01-25T09:52:03;96516.88;;;1.60;83.10
11268;BME280;49397;47.474;9.416;2023-01-25T09:54:36;96515.28;;;1.70;83.22
11268;BME280;49397;47.474;9.416;2023-01-25T09:57:03;96520.03;;;1.68;82.77
11268;BME280;49397;47.474;9.416;2023-01-25T09:59:29;96517.34;;;1.68;83.09
11268;BME280;49397;47.474;9.416;2023-01-25T10:04:41;96504.53;;;1.58;82.46
11268;BME280;49397;47.474;9.416;2023-01-25T10:09:50;96502.13;;;1.69;82.34
11268;BME280;49397;47.474;9.416;2023-01-25T10:12:27;96508.41;;;1.74;82.65
11268;BME280;49397;47.474;9.416;2023-01-25T10:14:57;96497.34;;;1.59;82.89
11268;BME280;49397;47.474;9.416;2023-01-25T10:17:41;96498.03;;;1.54;82.97
11268;BME280;49397;47.474;9.416;2023-01-25T10:20:22;96502.50;;;1.72;83.69
11268;BME280;49397;47.474;9.416;2023-01-25T10:22:54;96501.22;;;1.75;82.92
11268;BME280;49397;47.474;9.416;2023-01-25T10:25:42;96490.63;;;1.68;82.42
11268;BME280;49397;47.474;9.416;2023-01-25T10:28:19;96489.69;;;1.63;83.17
11268;BME280;49397;47.474;9.416;2023-01-25T10:31:05;96493.31;;;1.80;82.35
11268;BME280;49397;47.474;9.416;2023-01-25T10:33:34;96493.09;;;1.81;83.04
11268;BME280;49397;47.474;9.416;2023-01-25T10:36:03;96489.47;;;1.87;81.68
11268;BME280;49397;47.474;9.416;2023-01-25T10:38:34;96488.00;;;1.91;81.85
11268;BME280;49397;47.474;9.416;2023-01-25T10:41:20;96492.16;;;1.87;80.95
11268;BME280;49397;47.474;9.416;2023-01-25T10:43:49;96491.59;;;1.97;80.81
11268;BME280;49397;47.474;9.416;2023-01-25T10:46:35;96490.56;;;2.09;79.72
11268;BME280;49397;47.474;9.416;2023-01-25T10:49:22;96474.38;;;2.04;79.52
11268;BME280;49397;47.474;9.416;2023-01-25T10:51:48;96492.53;;;2.02;78.65
11268;BME280;49397;47.474;9.416;2023-01-25T10:54:15;96486.25;;;1.97;79.24
11268;BME280;49397;47.474;9.416;2023-01-25T10:56:42;96492.16;;;1.87;80.14
11268;BME280;49397;47.474;9.416;2023-01-25T11:01:46;96482.63;;;1.80;81.76
11268;BME280;49397;47.474;9.416;2023-01-25T11:04:32;96480.63;;;1.75;81.44
11268;BME280;49397;47.474;9.416;2023-01-25T11:06:58;96469.59;;;1.83;82.36
11268;BME280;49397;47.474;9.416;2023-01-25T11:14:24;96455.53;;;1.88;81.58
11268;BME280;49397;47.474;9.416;2023-01-25T11:16:54;96461.25;;;1.91;80.06
11268;BME280;49397;47.474;9.416;2023-01-25T11:22:19;96459.13;;;1.82;81.31
11268;BME280;49397;47.474;9.416;2023-01-25T11:24:45;96456.47;;;2.05;80.76
11268;BME280;49397;47.474;9.416;2023-01-25T11:27:20;96461.09;;;1.98;81.30
11268;BME280;49397;47.474;9.416;2023-01-25T11:32:30;96446.94;;;1.97;80.83
11268;BME280;49397;47.474;9.416;2023-01-25T11:34:56;96455.75;;;1.86;80.33
11268;BME280;49397;47.474;9.416;2023-01-25T11:37:34;96439.00;;;1.91;80.51
11268;BME280;49397;47.474;9.416;2023-01-25T11:40:13;96443.88;;;1.71;81.27
11268;BME280;49397;47.474;9.416;2023-01-25T11:42:57;96432.59;;;1.69;82.27
11268;BME280;49397;47.474;9.416;2023-01-25T11:48:16;96421.09;;;1.80;80.69
11268;BME280;49397;47.474;9.416;2023-01-25T11:51:12;96419.00;;;1.93;80.83
11268;BME280;49397;47.474;9.416;2023-01-25T12:04:40;96395.84;;;1.87;81.72
11268;BME280;49397;47.474;9.416;2023-01-25T12:10:31;96382.13;;;1.84;81.02
11268;BME280;49397;47.474;9.416;2023-01-25T12:18:37;96364.44;;;1.94;80.51
11268;BME280;49397;47.474;9.416;2023-01-25T12:24:50;96361.97;;;2.04;81.09
11268;BME280;49397;47.474;9.416;2023-01-25T12:32:52;96346.03;;;2.09;81.02
11268;BME280;49397;47.474;9.416;2023-01-25T12:35:32;96348.00;;;2.14;80.56
11268;BME280;49397;47.474;9.416;2023-01-25T12:38:01;96343.00;;;2.17;80.55
11268;BME280;49397;47.474;9.416;2023-01-25T12:40:43;96338.31;;;2.24;80.14
11268;BME280;49397;47.474;9.416;2023-01-25T12:43:25;96340.09;;;2.07;80.19
11268;BME280;49397;47.474;9.416;2023-01-25T12:45:52;96336.97;;;1.99;80.73
11268;BME280;49397;47.474;9.416;2023-01-25T12:48:31;96324.88;;;1.96;80.34
11268;BME280;49397;47.474;9.416;2023-01-25T12:50:59;96329.53;;;1.89;81.26
11268;BME280;49397;47.474;9.416;2023-01-25T12:53:46;96329.53;;;1.89;81.66
11268;BME280;49397;47.474;9.416;2023-01-25T12:56:30;96306.97;;;1.85;81.68
11268;BME280;49397;47.474;9.416;2023-01-25T12:59:13;96324.63;;;1.98;81.61
11268;BME280;49397;47.474;9.416;2023-01-25T13:01:47;96325.09;;;1.95;81.97
11268;BME280;49397;47.474;9.416;2023-01-25T13:07:09;96329.06;;;2.04;82.37
11268;BME280;49397;47.474;9.416;2023-01-25T13:09:51;96311.59;;;2.01;81.53
11268;BME280;49397;47.474;9.416;2023-01-25T13:12:19;96308.44;;;2.04;81.48
11268;BME280;49397;47.474;9.416;2023-01-25T13:14:45;96308.22;;;2.06;81.07
11268;BME280;49397;47.474;9.416;2023-01-25T13:22:02;96292.38;;;2.16;81.77
11268;BME280;49397;47.474;9.416;2023-01-25T13:24:29;96299.94;;;2.07;80.94
11268;BME280;49397;47.474;9.416;2023-01-25T13:31:54;96294.88;;;1.94;81.99
11268;BME280;49397;47.474;9.416;2023-01-25T13:37:25;96286.94;;;1.99;81.96
11268;BME280;49397;47.474;9.416;2023-01-25T13:44:49;96280.91;;;1.92;83.05
11268;BME280;49397;47.474;9.416;2023-01-25T13:47:19;96281.16;;;1.91;84.37
11268;BME280;49397;47.474;9.416;2023-01-25T13:50:08;96282.81;;;1.80;84.36
11268;BME280;49397;47.474;9.416;2023-01-25T13:52:55;96281.41;;;1.78;84.41
11268;BME280;49397;47.474;9.416;2023-01-25T13:55:21;96276.06;;;1.66;84.75
11268;BME280;49397;47.474;9.416;2023-01-25T13:57:46;96276.75;;;1.73;84.68
11268;BME280;49397;47.474;9.416;2023-01-25T14:00:15;96259.56;;;1.69;84.75
11268;BME280;49397;47.474;9.416;2023-01-25T14:02:43;96271.88;;;1.70;84.32
11268;BME280;49397;47.474;9.416;2023-01-25T14:05:23;96268.38;;;1.70;84.18
11268;BME280;49397;47.474;9.416;2023-01-25T14:07:52;96264.22;;;1.74;83.95
11268;BME280;49397;47.474;9.416;2023-01-25T14:10:20;96259.56;;;1.69;84.03
11268;BME280;49397;47.474;9.416;2023-01-25T14:12:49;96268.97;;;1.72;85.38
11268;BME280;49397;47.474;9.416;2023-01-25T14:15:30;96265.81;;;1.63;84.66
11268;BME280;49397;47.474;9.416;2023-01-25T14:18:16;96255.59;;;1.83;85.15
11268;BME280;49397;47.474;9.416;2023-01-25T14:20:48;96252.06;;;1.94;84.34
11268;BME280;49397;47.474;9.416;2023-01-25T14:23:28;96248.34;;;1.84;84.71
11268;BME280;49397;47.474;9.416;2023-01-25T14:25:55;96250.34;;;1.77;84.88
11268;BME280;49397;47.474;9.416;2023-01-25T14:28:24;96250.59;;;1.75;84.57
11268;BME280;49397;47.474;9.416;2023-01-25T14:30:52;96246.63;;;1.78;84.79
11268;BME280;49397;47.474;9.416;2023-01-25T14:33:26;96251.25;;;1.82;84.51
11268;BME280;49397;47.474;9.416;2023-01-25T14:35:54;96254.53;;;1.84;84.53
11268;BME280;49397;47.474;9.416;2023-01-25T14:38:39;96249.53;;;1.76;85.03
11268;BME280;49397;47.474;9.416;2023-01-25T14:41:38;96248.09;;;1.85;84.49
11268;BME280;49397;47.474;9.416;2023-01-25T14:44:12;96241.97;;;1.85;84.69